< < Back
Terminal Aerodrome Forecast


Current Version              Previous Versions:   1  2  3  4  5  6  7  8  9  

Terminal Aerodrome Forecast

318
FTUS42 KJAX 251100
TAFJAX
TAF
KJAX 251120Z 2512/2612 00000KT P6SM SKC
     FM251400 36007KT P6SM SKC
     FM260200 00000KT P6SM SKC=

Latest METAR

303
SAUS80 KWBC 260900
MTRJAX
METAR KJAX 260856Z 00000KT 10SM CLR 11/09 A2995 RMK AO2 SLP143 T01060094
56009


USA.gov is the U.S. government's official web portal to all federal, state and local government web resources and services.